Time;durP1;ratioP1;P1;durP2;ratioP2;P2;SDS_P1;SDS_P2;PMS_P1;PMS_P2;Temp;Humidity;BMP_temperature;BMP_pressure;BME280_temperature;BME280_humidity;BME280_pressure;Samples;Min_cycle;Max_cycle;Signal;HPM_P1;HPM_P2
2024/01/16 00:01:09;;;;;;;0.80;0.80;;;;;;;-1.11;100.00;98609.59;5042505;28;20131;-59
2024/01/16 00:03:38;;;;;;;0.80;0.80;;;;;;;-0.97;100.00;98605.34;5034581;28;20050;-59
2024/01/16 00:06:06;;;;;;;0.80;0.80;;;;;;;-0.93;100.00;98611.84;5037853;28;20455;-58
2024/01/16 00:08:33;;;;;;;0.80;0.80;;;;;;;-0.89;100.00;98616.56;5040591;28;20279;-59
2024/01/16 00:11:02;;;;;;;0.80;0.80;;;;;;;-0.93;100.00;98609.22;5027176;28;20055;-59
2024/01/16 00:13:29;;;;;;;0.80;0.80;;;;;;;-0.90;100.00;98614.09;5035032;28;20159;-59
2024/01/16 00:15:56;;;;;;;0.90;0.90;;;;;;;-0.94;100.00;98611.03;5029054;28;20128;-59
2024/01/16 00:18:23;;;;;;;0.73;0.73;;;;;;;-0.88;100.00;98620.00;5039556;28;20128;-59
2024/01/16 00:20:51;;;;;;;0.80;0.80;;;;;;;-0.88;100.00;98620.00;5041252;28;20136;-59
2024/01/16 00:23:18;;;;;;;0.85;0.85;;;;;;;-0.83;100.00;98625.53;5037331;28;20694;-59
2024/01/16 00:25:45;;;;;;;0.75;0.75;;;;;;;-0.78;100.00;98617.91;5020658;28;20048;-59
2024/01/16 00:28:12;;;;;;;0.80;0.80;;;;;;;-0.70;100.00;98627.50;5034554;28;20371;-59
2024/01/16 00:30:40;;;;;;;0.80;0.80;;;;;;;-0.77;100.00;98622.19;5036208;28;20491;-59
2024/01/16 00:33:07;;;;;;;0.70;0.70;;;;;;;-0.71;100.00;98618.78;5036899;28;20073;-59
2024/01/16 00:35:34;;;;;;;0.70;0.70;;;;;;;-0.67;100.00;98622.69;5038911;28;20084;-59
2024/01/16 00:38:03;;;;;;;0.70;0.70;;;;;;;-0.68;100.00;98628.94;5020019;28;20067;-59
2024/01/16 00:40:30;;;;;;;0.80;0.80;;;;;;;-0.73;100.00;98628.69;5019895;28;20068;-58
2024/01/16 00:42:57;;;;;;;0.70;0.70;;;;;;;-0.63;100.00;98622.31;5040703;28;20053;-59
2024/01/16 00:45:24;;;;;;;0.80;0.80;;;;;;;-0.74;100.00;98637.59;5035530;28;20060;-58
2024/01/16 00:47:51;;;;;;;0.80;0.80;;;;;;;-0.74;100.00;98627.06;5037562;28;20073;-59
2024/01/16 00:50:18;;;;;;;0.73;0.73;;;;;;;-0.66;100.00;98629.59;5035413;28;20041;-59
2024/01/16 00:52:45;;;;;;;0.90;0.90;;;;;;;-0.61;100.00;98633.50;5039116;28;20120;-59
2024/01/16 00:55:13;;;;;;;0.73;0.73;;;;;;;-0.70;100.00;98633.59;5035697;28;20242;-59
2024/01/16 00:57:40;;;;;;;0.80;0.80;;;;;;;-0.62;100.00;98629.22;5037194;28;20068;-58
2024/01/16 01:00:09;;;;;;;0.82;0.82;;;;;;;-0.71;100.00;98636.41;5041146;28;20495;-58
2024/01/16 01:02:36;;;;;;;0.70;0.70;;;;;;;-0.73;100.00;98633.13;5040510;28;20042;-58
2024/01/16 01:05:04;;;;;;;0.77;0.77;;;;;;;-0.72;100.00;98630.34;5039067;28;20045;-59
2024/01/16 01:07:31;;;;;;;0.70;0.70;;;;;;;-0.69;100.00;98621.25;5027207;28;20065;-59
2024/01/16 01:09:58;;;;;;;0.63;0.63;;;;;;;-0.70;100.00;98628.34;5043278;28;20033;-59
2024/01/16 01:12:26;;;;;;;0.90;0.90;;;;;;;-0.74;100.00;98627.06;5041464;28;20118;-59
2024/01/16 01:14:53;;;;;;;0.70;0.70;;;;;;;-0.61;100.00;98630.84;5038328;28;20061;-58
2024/01/16 01:17:20;;;;;;;0.80;0.80;;;;;;;-0.62;100.00;98629.22;5040208;28;20060;-59
2024/01/16 01:19:47;;;;;;;0.77;0.77;;;;;;;-0.64;100.00;98637.31;5046856;28;20061;-59
2024/01/16 01:22:14;;;;;;;0.60;0.60;;;;;;;-0.57;100.00;98637.41;5044890;28;20132;-59
2024/01/16 01:24:41;;;;;;;0.77;0.77;;;;;;;-0.64;100.00;98631.22;5039157;28;20068;-58
2024/01/16 01:27:08;;;;;;;0.77;0.77;;;;;;;-0.72;100.00;98635.59;5033703;28;20042;-59
2024/01/16 01:29:37;;;;;;;0.88;0.88;;;;;;;-0.65;100.00;98638.28;5034802;28;20033;-59
2024/01/16 01:32:04;;;;;;;0.70;0.70;;;;;;;-0.75;100.00;98643.88;5024276;28;20055;-59
2024/01/16 01:34:31;;;;;;;0.80;0.80;;;;;;;-0.77;100.00;98645.06;5024152;28;20491;-59
2024/01/16 01:36:58;;;;;;;0.88;0.88;;;;;;;-0.84;100.00;98642.31;5038177;28;20394;-59
2024/01/16 01:39:25;;;;;;;0.70;0.70;;;;;;;-0.73;100.00;98655.00;5029617;28;20406;-58
2024/01/16 01:41:52;;;;;;;0.80;0.80;;;;;;;-0.68;100.00;98657.91;5047118;28;20048;-59
2024/01/16 01:44:19;;;;;;;0.80;0.80;;;;;;;-0.68;100.00;98657.91;5046979;28;20049;-59
2024/01/16 01:46:48;;;;;;;0.70;0.70;;;;;;;-0.73;100.00;98662.91;5038499;28;20045;-59
2024/01/16 01:49:15;;;;;;;0.80;0.80;;;;;;;-0.80;100.00;98659.38;5042146;28;20051;-59
2024/01/16 01:51:42;;;;;;;0.85;0.85;;;;;;;-0.74;100.00;98663.91;5040795;28;20316;-58
2024/01/16 01:54:09;;;;;;;0.82;0.82;;;;;;;-0.83;100.00;98669.44;5024883;28;20054;-59
2024/01/16 01:56:36;;;;;;;0.80;0.80;;;;;;;-0.72;100.00;98663.75;5033531;28;20041;-59
2024/01/16 01:59:03;;;;;;;0.90;0.90;;;;;;;-0.83;100.00;98666.81;5037155;28;20496;-59
2024/01/16 02:01:31;;;;;;;0.80;0.80;;;;;;;-0.82;100.00;98666.66;5023752;28;20142;-59
2024/01/16 02:04:00;;;;;;;0.80;0.80;;;;;;;-0.87;100.00;98674.28;5010466;28;20506;-59
2024/01/16 02:06:27;;;;;;;0.75;0.75;;;;;;;-0.93;100.00;98669.72;5041908;28;20055;-59
2024/01/16 02:08:54;;;;;;;0.80;0.80;;;;;;;-0.88;100.00;98672.63;5041785;28;20442;-59
2024/01/16 02:11:21;;;;;;;0.90;0.90;;;;;;;-0.96;100.00;98675.34;5044506;28;20487;-59
2024/01/16 02:13:48;;;;;;;0.70;0.70;;;;;;;-0.98;100.00;98679.97;5043114;28;20107;-59
2024/01/16 02:16:19;;;;;;;0.90;0.90;;;;;;;-0.95;100.00;98674.34;5025519;28;20530;-59
2024/01/16 02:18:46;;;;;;;0.80;0.80;;;;;;;-0.96;100.00;98680.63;5043460;28;20047;-59
2024/01/16 02:21:17;;;;;;;0.80;0.80;;;;;;;-0.99;100.00;98681.00;5036652;28;20041;-59
2024/01/16 02:23:46;;;;;;;0.88;0.88;;;;;;;-1.09;100.00;98676.00;5033800;28;20495;-59
2024/01/16 02:26:13;;;;;;;1.00;1.00;;;;;;;-1.12;100.00;98671.91;5029180;28;20053;-59
2024/01/16 02:28:40;;;;;;;0.80;0.80;;;;;;;-1.18;100.00;98671.81;5042797;28;20637;-59
2024/01/16 02:31:08;;;;;;;0.80;0.80;;;;;;;-1.26;100.00;98675.34;5037043;28;20052;-59
2024/01/16 02:33:35;;;;;;;0.82;0.82;;;;;;;-1.21;100.00;98675.63;5025624;28;20461;-59
2024/01/16 02:36:02;;;;;;;0.90;0.90;;;;;;;-1.21;100.00;98678.25;5040836;28;20768;-59
2024/01/16 02:38:29;;;;;;;0.90;0.90;;;;;;;-1.29;100.00;98675.72;5042768;28;20041;-59
2024/01/16 02:40:58;;;;;;;1.00;1.00;;;;;;;-1.28;100.00;98677.31;5024502;28;20040;-59
2024/01/16 02:43:26;;;;;;;0.90;0.90;;;;;;;-1.29;100.00;98675.72;5041585;28;20045;-59
2024/01/16 02:45:54;;;;;;;0.80;0.80;;;;;;;-1.33;100.00;98677.06;5040883;28;20136;-59
2024/01/16 02:48:21;;;;;;;0.93;0.93;;;;;;;-1.34;100.00;98680.69;5020619;28;20099;-59
2024/01/16 02:50:48;;;;;;;0.85;0.85;;;;;;;-1.37;100.00;98673.97;5041612;28;20033;-60
2024/01/16 02:53:15;;;;;;;0.90;0.90;;;;;;;-1.43;100.00;98671.25;5037608;28;20037;-59
2024/01/16 02:55:42;;;;;;;0.80;0.80;;;;;;;-1.35;100.00;98672.00;5020292;28;20057;-59
2024/01/16 02:58:11;;;;;;;0.80;0.80;;;;;;;-1.33;100.00;98674.41;5042516;28;20052;-59
2024/01/16 03:00:38;;;;;;;0.80;0.80;;;;;;;-1.29;100.00;98662.56;5035440;28;20077;-59
2024/01/16 03:03:05;;;;;;;0.80;0.80;;;;;;;-1.24;100.00;98665.47;5041318;28;20496;-59
2024/01/16 03:05:32;;;;;;;1.00;1.00;;;;;;;-1.20;100.00;98664.13;5023511;28;20254;-59
2024/01/16 03:07:59;;;;;;;0.80;0.80;;;;;;;-1.16;100.00;98660.09;5034963;28;20569;-59
2024/01/16 03:10:26;;;;;;;0.70;0.70;;;;;;;-1.14;100.00;98658.13;5041534;28;20048;-59
2024/01/16 03:12:53;;;;;;;0.80;0.80;;;;;;;-1.18;100.00;98651.56;5042304;28;20157;-59
2024/01/16 03:15:22;;;;;;;0.90;0.90;;;;;;;-1.05;100.00;98652.75;5036356;28;20060;-59
2024/01/16 03:17:50;;;;;;;0.90;0.90;;;;;;;-1.11;100.00;98641.97;5041881;28;20474;-59
2024/01/16 03:20:17;;;;;;;0.80;0.80;;;;;;;-1.11;100.00;98644.59;5043249;28;20128;-59
2024/01/16 03:22:45;;;;;;;0.80;0.80;;;;;;;-1.25;100.00;98641.97;5039368;28;20045;-59
2024/01/16 03:25:12;;;;;;;0.88;0.88;;;;;;;-1.28;100.00;98655.47;5040754;28;20040;-59
2024/01/16 03:27:39;;;;;;;0.80;0.80;;;;;;;-1.29;100.00;98657.31;5038807;28;20040;-59
2024/01/16 03:30:08;;;;;;;0.85;0.85;;;;;;;-1.28;100.00;98648.41;5041344;28;20420;-59
2024/01/16 03:32:36;;;;;;;0.80;0.80;;;;;;;-1.30;100.00;98653.03;5037333;28;20591;-59
2024/01/16 03:35:03;;;;;;;0.80;0.80;;;;;;;-1.37;100.00;98650.31;5040045;28;20454;-59
2024/01/16 03:37:31;;;;;;;0.80;0.80;;;;;;;-1.34;100.00;98641.25;5037387;28;20059;-59
2024/01/16 03:39:58;;;;;;;0.80;0.80;;;;;;;-1.34;100.00;98652.56;5033887;28;20351;-59
2024/01/16 03:42:25;;;;;;;0.70;0.70;;;;;;;-1.33;100.00;98663.91;5033740;28;20037;-59
2024/01/16 03:44:52;;;;;;;0.85;0.85;;;;;;;-1.33;100.00;98666.53;5040468;28;20137;-59
2024/01/16 03:47:19;;;;;;;0.90;0.90;;;;;;;-1.28;100.00;98677.31;5039025;28;20159;-59
2024/01/16 03:49:51;;;;;;;0.80;0.80;;;;;;;-1.21;100.00;98670.34;5039078;28;20307;-59
2024/01/16 03:52:18;;;;;;;0.65;0.65;;;;;;;-1.27;100.00;98680.78;5041210;28;20140;-60
2024/01/16 03:54:45;;;;;;;0.77;0.77;;;;;;;-1.24;100.00;98678.59;5038536;28;20558;-59
2024/01/16 03:57:12;;;;;;;0.70;0.70;;;;;;;-1.31;100.00;98682.94;5040885;28;20045;-59
2024/01/16 03:59:39;;;;;;;0.70;0.70;;;;;;;-1.31;100.00;98683.75;5041393;28;20045;-59
2024/01/16 04:02:06;;;;;;;0.80;0.80;;;;;;;-1.29;100.00;98680.97;5039705;28;20111;-59
2024/01/16 04:04:33;;;;;;;0.80;0.80;;;;;;;-1.28;100.00;98681.78;5041298;28;20438;-59
2024/01/16 04:07:02;;;;;;;0.80;0.80;;;;;;;-1.21;100.00;98680.88;5028429;28;20118;-59
2024/01/16 04:09:29;;;;;;;0.90;0.90;;;;;;;-1.22;100.00;98674.00;5042580;28;20156;-59
2024/01/16 04:11:56;;;;;;;0.85;0.85;;;;;;;-1.21;100.00;98677.44;5041464;28;20118;-59
2024/01/16 04:14:23;;;;;;;0.90;0.90;;;;;;;-1.20;100.00;98673.78;5040478;28;20096;-59
2024/01/16 04:16:50;;;;;;;0.90;0.90;;;;;;;-1.20;100.00;98664.13;5046574;28;20036;-59
2024/01/16 04:19:18;;;;;;;0.90;0.90;;;;;;;-1.15;100.00;98661.75;5042309;28;21038;-59
2024/01/16 04:21:45;;;;;;;0.80;0.80;;;;;;;-1.15;100.00;98668.81;5026229;28;20440;-59
2024/01/16 04:24:13;;;;;;;0.90;0.90;;;;;;;-1.20;100.00;98661.50;5045381;28;20049;-59
2024/01/16 04:26:40;;;;;;;0.80;0.80;;;;;;;-1.12;100.00;98671.91;5039203;28;20399;-59
2024/01/16 04:29:08;;;;;;;0.65;0.65;;;;;;;-1.16;100.00;98665.38;5038999;28;20365;-59
2024/01/16 04:31:39;;;;;;;0.80;0.80;;;;;;;-1.13;100.00;98665.00;5040533;28;20058;-59
2024/01/16 04:34:07;;;;;;;0.80;0.80;;;;;;;-1.10;100.00;98669.91;5040097;28;20551;-59
2024/01/16 04:36:34;;;;;;;0.80;0.80;;;;;;;-1.16;100.00;98675.88;5040554;28;20057;-59
2024/01/16 04:39:01;;;;;;;0.80;0.80;;;;;;;-1.21;100.00;98677.44;5039581;28;20435;-59
2024/01/16 04:41:29;;;;;;;0.80;0.80;;;;;;;-1.15;100.00;98679.31;5044503;28;20045;-59
2024/01/16 04:43:56;;;;;;;0.70;0.70;;;;;;;-1.25;100.00;98682.22;5043875;28;20049;-59
2024/01/16 04:46:23;;;;;;;0.80;0.80;;;;;;;-1.24;100.00;98678.59;5044026;28;20474;-59
2024/01/16 04:48:51;;;;;;;0.80;0.80;;;;;;;-1.19;100.00;98678.88;5038078;28;20041;-59
2024/01/16 04:51:18;;;;;;;0.70;0.70;;;;;;;-1.16;100.00;98672.44;5042869;28;20057;-59
2024/01/16 04:53:45;;;;;;;0.80;0.80;;;;;;;-1.10;100.00;98671.72;5041073;28;20041;-60
2024/01/16 04:56:12;;;;;;;0.70;0.70;;;;;;;-1.13;100.00;98675.53;5024680;28;20557;-59
2024/01/16 04:58:40;;;;;;;0.70;0.70;;;;;;;-1.05;100.00;98671.19;5044667;28;20787;-59
2024/01/16 05:01:08;;;;;;;1.00;1.00;;;;;;;-1.04;100.00;98680.72;5026063;28;20495;-59
2024/01/16 05:03:35;;;;;;;0.73;0.73;;;;;;;-1.13;100.00;98672.09;5028313;28;20043;-59
2024/01/16 05:06:03;;;;;;;0.70;0.70;;;;;;;-1.06;100.00;98665.09;5043425;28;20099;-60
2024/01/16 05:08:31;;;;;;;0.85;0.85;;;;;;;-1.10;100.00;98664.66;5033250;28;20558;-60
2024/01/16 05:10:58;;;;;;;0.82;0.82;;;;;;;-1.12;100.00;98669.28;5037857;28;20636;-59
2024/01/16 05:13:26;;;;;;;0.80;0.80;;;;;;;-1.15;100.00;98667.03;5041354;28;20044;-59
2024/01/16 05:15:54;;;;;;;0.70;0.70;;;;;;;-1.18;100.00;98656.84;5039167;28;20056;-60
2024/01/16 05:18:21;;;;;;;0.70;0.70;;;;;;;-1.11;100.00;98663.00;5038180;28;20073;-59
2024/01/16 05:20:49;;;;;;;0.70;0.70;;;;;;;-1.22;100.00;98644.22;5040425;28;20817;-59
2024/01/16 05:23:16;;;;;;;0.82;0.82;;;;;;;-1.14;100.00;98644.97;5042394;28;20493;-59
2024/01/16 05:25:44;;;;;;;0.70;0.70;;;;;;;-1.22;100.00;98650.31;5044171;28;20060;-59
2024/01/16 05:28:11;;;;;;;0.80;0.80;;;;;;;-1.22;100.00;98650.31;5040438;28;20056;-59
2024/01/16 05:30:39;;;;;;;0.80;0.80;;;;;;;-1.22;100.00;98654.75;5043042;28;20506;-59
2024/01/16 05:33:07;;;;;;;0.73;0.73;;;;;;;-1.25;100.00;98655.13;5038994;28;20474;-59
2024/01/16 05:35:34;;;;;;;0.70;0.70;;;;;;;-1.46;100.00;98653.19;5037490;28;20508;-59
2024/01/16 05:38:03;;;;;;;0.80;0.80;;;;;;;-1.35;100.00;98650.13;5042952;28;20057;-59
2024/01/16 05:40:30;;;;;;;0.80;0.80;;;;;;;-1.48;100.00;98647.31;5037950;28;20099;-60
2024/01/16 05:42:57;;;;;;;0.70;0.70;;;;;;;-1.61;100.00;98640.03;5044259;28;20582;-59
2024/01/16 05:45:24;;;;;;;0.80;0.80;;;;;;;-1.61;100.00;98629.53;5037215;28;20051;-59
2024/01/16 05:47:52;;;;;;;0.90;0.90;;;;;;;-1.64;100.00;98620.19;5044446;28;20053;-59
2024/01/16 05:50:20;;;;;;;0.80;0.80;;;;;;;-1.62;100.00;98631.34;5043242;28;20062;-60
2024/01/16 05:52:47;;;;;;;0.80;0.80;;;;;;;-1.64;100.00;98641.22;5033791;28;20038;-59
2024/01/16 05:55:16;;;;;;;0.80;0.80;;;;;;;-1.64;100.00;98638.56;5039216;28;20048;-59
2024/01/16 05:57:43;;;;;;;1.00;1.00;;;;;;;-1.64;100.00;98646.47;5039504;28;20052;-59
2024/01/16 06:00:11;;;;;;;0.70;0.70;;;;;;;-1.64;100.00;98645.66;5039680;28;20450;-59
2024/01/16 06:02:38;;;;;;;0.80;0.80;;;;;;;-1.66;100.00;98639.75;5025960;28;20045;-59
2024/01/16 06:05:06;;;;;;;0.80;0.80;;;;;;;-1.69;100.00;98637.50;5041683;28;20045;-59
2024/01/16 06:07:35;;;;;;;0.70;0.70;;;;;;;-1.62;100.00;98641.00;5043364;28;20049;-60
2024/01/16 06:10:03;;;;;;;0.90;0.90;;;;;;;-1.58;100.00;98639.66;5039054;28;20052;-59
2024/01/16 06:12:30;;;;;;;0.80;0.80;;;;;;;-1.57;100.00;98638.69;5039588;28;20045;-60
2024/01/16 06:14:57;;;;;;;0.90;0.90;;;;;;;-1.52;100.00;98645.03;5036513;28;20140;-59
2024/01/16 06:17:25;;;;;;;0.85;0.85;;;;;;;-1.58;100.00;98656.25;5036812;28;20051;-59
2024/01/16 06:19:52;;;;;;;0.93;0.93;;;;;;;-1.54;100.00;98657.53;5040271;28;20056;-59
2024/01/16 06:22:19;;;;;;;0.90;0.90;;;;;;;-1.56;100.00;98648.19;5036435;28;20490;-59
2024/01/16 06:24:48;;;;;;;0.80;0.80;;;;;;;-1.73;100.00;98643.06;5037475;28;20046;-59
2024/01/16 06:27:18;;;;;;;0.85;0.85;;;;;;;-1.81;100.00;98635.28;5042453;28;20045;-59
2024/01/16 06:29:45;;;;;;;0.80;0.80;;;;;;;-1.82;100.00;98652.03;5038773;28;20060;-60
2024/01/16 06:32:13;;;;;;;0.80;0.80;;;;;;;-1.68;100.00;98649.63;5044439;28;20041;-59
2024/01/16 06:34:40;;;;;;;0.80;0.80;;;;;;;-1.82;100.00;98648.56;5040345;28;20044;-59
2024/01/16 06:37:08;;;;;;;0.90;0.90;;;;;;;-2.15;100.00;98651.44;5032635;28;20072;-59
2024/01/16 06:39:35;;;;;;;0.80;0.80;;;;;;;-2.26;100.00;98654.50;5037566;28;20041;-59
2024/01/16 06:42:05;;;;;;;1.00;1.00;;;;;;;-2.38;100.00;98654.88;5030383;28;20076;-59
2024/01/16 06:44:32;;;;;;;0.90;0.90;;;;;;;-2.39;100.00;98648.00;5021301;28;20053;-60
2024/01/16 06:46:59;;;;;;;1.00;1.00;;;;;;;-2.38;100.00;98652.25;5023548;28;20076;-58
2024/01/16 06:49:27;;;;;;;0.90;0.90;;;;;;;-2.43;100.00;98651.16;5033604;28;20048;-59
2024/01/16 06:51:54;;;;;;;0.90;0.90;;;;;;;-2.38;100.00;98647.00;5024515;28;20418;-59
2024/01/16 06:54:23;;;;;;;0.90;0.90;;;;;;;-2.45;100.00;98643.44;5040962;28;20523;-59
2024/01/16 06:56:50;;;;;;;1.00;1.00;;;;;;;-2.44;100.00;98647.72;5027080;28;20119;-59
2024/01/16 06:59:21;;;;;;;0.90;0.90;;;;;;;-2.41;100.00;98652.59;5040326;28;20052;-59
2024/01/16 07:01:49;;;;;;;0.90;0.90;;;;;;;-2.56;100.00;98643.84;5022500;28;20037;-61
2024/01/16 07:04:16;;;;;;;1.10;1.10;;;;;;;-2.52;100.00;98641.69;5038114;28;20052;-59
2024/01/16 07:06:43;;;;;;;1.00;1.00;;;;;;;-2.55;100.00;98655.16;5035378;28;20065;-58
2024/01/16 07:09:11;;;;;;;0.90;0.90;;;;;;;-2.63;100.00;98656.00;5040457;28;20488;-58
2024/01/16 07:11:42;;;;;;;0.90;0.90;;;;;;;-2.60;100.00;98653.03;5044613;28;20866;-58
2024/01/16 07:14:10;;;;;;;0.95;0.95;;;;;;;-2.65;100.00;98655.34;5038959;28;20049;-58
2024/01/16 07:16:38;;;;;;;1.00;1.00;;;;;;;-2.68;100.00;98669.63;5041160;28;20037;-59
2024/01/16 07:19:05;;;;;;;0.80;0.80;;;;;;;-2.73;100.00;98671.16;5042437;28;20152;-60
2024/01/16 07:21:33;;;;;;;0.90;0.90;;;;;;;-2.68;100.00;98669.63;5033989;28;20045;-59
2024/01/16 07:24:00;;;;;;;1.00;1.00;;;;;;;-2.67;100.00;98675.69;5037932;28;20048;-60
2024/01/16 07:26:27;;;;;;;1.00;1.00;;;;;;;-2.68;100.00;98674.06;5033939;28;20470;-59
2024/01/16 07:28:55;;;;;;;1.00;1.00;;;;;;;-2.65;100.00;98671.91;5031566;28;20049;-59
2024/01/16 07:31:22;;;;;;;0.90;0.90;;;;;;;-2.63;100.00;98677.81;5018487;28;20068;-60
2024/01/16 07:33:51;;;;;;;0.77;0.77;;;;;;;-2.71;100.00;98679.66;5041163;28;20049;-60
2024/01/16 07:36:18;;;;;;;0.80;0.80;;;;;;;-2.82;100.00;98678.25;5030600;28;20041;-60
2024/01/16 07:38:45;;;;;;;1.10;1.10;;;;;;;-2.91;100.00;98674.81;5032876;28;20043;-60
2024/01/16 07:41:12;;;;;;;0.90;0.90;;;;;;;-2.87;100.00;98680.53;5037140;28;20091;-59
2024/01/16 07:43:39;;;;;;;0.88;0.88;;;;;;;-2.84;100.00;98678.41;5036355;28;20045;-60
2024/01/16 07:46:07;;;;;;;0.88;0.88;;;;;;;-2.80;100.00;98685.94;5032833;28;20040;-59
2024/01/16 07:48:34;;;;;;;0.98;0.98;;;;;;;-2.91;100.00;98690.56;5038975;28;20052;-59
2024/01/16 07:51:02;;;;;;;1.00;1.00;;;;;;;-2.94;100.00;98690.91;5039065;28;20059;-59
2024/01/16 07:53:29;;;;;;;1.00;1.00;;;;;;;-3.11;100.00;98692.75;5036647;28;20138;-59
2024/01/16 07:55:58;;;;;;;1.00;1.00;;;;;;;-3.08;100.00;98688.97;5035311;28;20127;-59
2024/01/16 07:58:25;;;;;;;1.00;1.00;;;;;;;-3.04;100.00;98695.53;5036524;28;20049;-61
2024/01/16 08:00:52;;;;;;;0.90;0.90;;;;;;;-3.08;100.00;98687.16;5032173;28;20052;-60
2024/01/16 08:03:19;;;;;;;1.00;1.00;;;;;;;-3.06;100.00;98692.25;5037738;28;20122;-60
2024/01/16 08:05:46;;;;;;;1.10;1.10;;;;;;;-3.10;100.00;98696.19;5031901;28;20048;-60
2024/01/16 08:08:15;;;;;;;0.90;0.90;;;;;;;-3.15;100.00;98693.25;5044419;28;20073;-59
2024/01/16 08:10:42;;;;;;;1.00;1.00;;;;;;;-3.21;100.00;98699.16;5031533;28;20053;-60
2024/01/16 08:13:09;;;;;;;0.98;0.98;;;;;;;-3.11;100.00;98705.84;5036317;28;20049;-60
2024/01/16 08:15:37;;;;;;;1.08;1.08;;;;;;;-3.08;100.00;98712.56;5033602;28;20041;-59
2024/01/16 08:18:04;;;;;;;1.02;1.02;;;;;;;-3.05;100.00;98709.59;5036662;28;20412;-59
2024/01/16 08:20:31;;;;;;;1.00;1.00;;;;;;;-3.05;100.00;98706.97;5020662;28;20045;-59
2024/01/16 08:22:59;;;;;;;1.00;1.00;;;;;;;-2.98;100.00;98713.19;5043192;28;20231;-60
2024/01/16 08:25:27;;;;;;;1.08;1.08;;;;;;;-3.02;100.00;98709.28;5039110;28;20065;-60
2024/01/16 08:27:54;;;;;;;1.00;1.00;;;;;;;-3.15;100.00;98706.34;5029789;28;20056;-59
2024/01/16 08:30:22;;;;;;;1.08;1.08;;;;;;;-3.12;100.00;98712.09;5035941;28;20052;-60
2024/01/16 08:32:49;;;;;;;1.05;1.05;;;;;;;-3.10;100.00;98722.41;5035844;28;20056;-59
2024/01/16 08:35:16;;;;;;;1.02;1.02;;;;;;;-3.07;100.00;98720.28;5032222;28;20053;-60
2024/01/16 08:37:44;;;;;;;1.00;1.00;;;;;;;-3.06;100.00;98716.66;5026626;28;20160;-59
2024/01/16 08:40:12;;;;;;;1.00;1.00;;;;;;;-3.07;100.00;98719.44;5036063;28;20091;-59
2024/01/16 08:42:41;;;;;;;0.90;0.90;;;;;;;-3.05;100.00;98722.72;5037657;28;20136;-58
2024/01/16 08:45:09;;;;;;;0.90;0.90;;;;;;;-2.99;100.00;98719.44;5034498;28;20060;-59
2024/01/16 08:47:36;;;;;;;0.88;0.88;;;;;;;-2.93;100.00;98723.19;5034146;28;20076;-59
2024/01/16 08:50:03;;;;;;;1.00;1.00;;;;;;;-2.80;100.00;98712.16;5034349;28;20558;-60
2024/01/16 08:52:30;;;;;;;1.10;1.10;;;;;;;-2.78;100.00;98710.19;5040974;28;20045;-58
2024/01/16 08:54:58;;;;;;;0.90;0.90;;;;;;;-2.92;100.00;98704.66;5039838;28;20046;-58
2024/01/16 08:57:25;;;;;;;1.00;1.00;;;;;;;-2.91;100.00;98705.47;5032817;28;20052;-58
2024/01/16 08:59:54;;;;;;;1.00;1.00;;;;;;;-2.90;100.00;98701.84;5040742;28;20329;-58
2024/01/16 09:02:21;;;;;;;1.00;1.00;;;;;;;-2.91;100.00;98706.28;5038224;28;20040;-58
2024/01/16 09:04:50;;;;;;;1.00;1.00;;;;;;;-1.94;100.00;98707.81;5040541;28;20049;-58
2024/01/16 09:07:18;;;;;;;1.00;1.00;;;;;;;-2.12;100.00;98722.03;5042522;28;20049;-58
2024/01/16 09:09:45;;;;;;;0.93;0.93;;;;;;;-1.47;100.00;98723.38;5034346;28;20041;-58
2024/01/16 09:12:12;;;;;;;0.90;0.90;;;;;;;-0.15;100.00;98727.97;5039475;28;20515;-59
2024/01/16 09:14:41;;;;;;;1.00;1.00;;;;;;;-0.85;100.00;98732.78;5037704;28;20045;-58
2024/01/16 09:17:09;;;;;;;1.10;1.10;;;;;;;-0.40;100.00;98727.47;5018877;28;20045;-59
2024/01/16 09:19:37;;;;;;;1.00;1.00;;;;;;;-0.52;100.00;98735.06;5034209;28;20047;-58
2024/01/16 09:22:04;;;;;;;0.80;0.80;;;;;;;-0.31;99.55;98727.19;5038770;28;20048;-60
2024/01/16 09:24:32;;;;;;;1.10;1.10;;;;;;;-0.57;98.74;98737.41;5046351;28;20044;-59
2024/01/16 09:26:59;;;;;;;0.90;0.90;;;;;;;-0.76;99.46;98744.03;5033560;28;20471;-60
2024/01/16 09:29:27;;;;;;;0.90;0.90;;;;;;;-0.58;100.00;98736.59;5024581;28;20145;-59
2024/01/16 09:31:54;;;;;;;0.90;0.90;;;;;;;0.26;96.36;98741.41;5040213;28;20053;-59
2024/01/16 09:34:23;;;;;;;0.88;0.88;;;;;;;1.01;90.58;98732.06;5040726;28;20061;-59
2024/01/16 09:36:50;;;;;;;0.98;0.98;;;;;;;0.86;89.54;98731.38;5032979;28;20041;-59
2024/01/16 09:39:17;;;;;;;0.80;0.80;;;;;;;0.09;92.52;98737.38;5042542;28;20496;-59
2024/01/16 09:41:45;;;;;;;0.80;0.80;;;;;;;0.46;93.00;98741.59;5035036;28;20088;-59
2024/01/16 09:44:12;;;;;;;0.80;0.80;;;;;;;1.26;89.26;98745.63;5035700;28;20147;-59
2024/01/16 09:46:40;;;;;;;0.90;0.90;;;;;;;0.94;90.03;98749.69;5040356;28;20033;-59
2024/01/16 09:49:07;;;;;;;0.70;0.70;;;;;;;1.04;89.21;98747.53;5043178;28;20053;-60
2024/01/16 09:51:36;;;;;;;0.80;0.80;;;;;;;0.57;90.61;98740.25;5040183;28;21442;-62
2024/01/16 09:54:08;;;;;;;0.75;0.75;;;;;;;1.07;88.63;98752.44;5033720;28;20041;-60
2024/01/16 09:56:36;;;;;;;0.93;0.93;;;;;;;0.91;88.55;98754.53;5026271;28;20036;-60
2024/01/16 09:59:06;;;;;;;0.80;0.80;;;;;;;0.33;92.98;98738.84;5038717;28;20045;-59
2024/01/16 10:01:33;;;;;;;0.75;0.75;;;;;;;0.61;91.01;98737.06;5041323;28;20368;-59
2024/01/16 10:04:00;;;;;;;0.80;0.80;;;;;;;0.56;92.07;98739.44;5022244;28;20041;-60
2024/01/16 10:06:28;;;;;;;0.90;0.90;;;;;;;0.52;90.90;98738.19;5037571;28;20502;-61
2024/01/16 10:08:56;;;;;;;0.90;0.90;;;;;;;0.10;91.26;98729.28;5032393;28;20060;-58
2024/01/16 10:11:23;;;;;;;0.90;0.90;;;;;;;0.39;91.30;98724.88;5040562;28;20539;-58
2024/01/16 10:13:50;;;;;;;0.82;0.82;;;;;;;1.31;86.99;98721.28;5023401;28;20106;-58
2024/01/16 10:16:17;;;;;;;1.00;1.00;;;;;;;0.75;88.53;98716.88;5040088;28;20048;-60
2024/01/16 10:18:46;;;;;;;0.75;0.75;;;;;;;0.75;86.76;98710.78;5032291;28;20045;-58
2024/01/16 10:21:21;;;;;;;1.00;1.00;;;;;;;0.86;87.46;98718.16;5038877;28;20037;-58
2024/01/16 10:23:48;;;;;;;0.80;0.80;;;;;;;0.55;88.31;98707.97;5040410;28;20408;-59
2024/01/16 10:26:18;;;;;;;0.80;0.80;;;;;;;1.19;88.87;98704.38;5033605;28;20554;-59
2024/01/16 10:28:45;;;;;;;0.63;0.63;;;;;;;1.48;85.97;98698.84;5027021;28;20044;-59
2024/01/16 10:31:13;;;;;;;0.82;0.82;;;;;;;1.60;83.32;98688.53;5039392;28;20041;-59
2024/01/16 10:33:42;;;;;;;0.80;0.80;;;;;;;1.87;82.03;98691.22;5038421;28;20587;-59
2024/01/16 10:36:11;;;;;;;0.70;0.70;;;;;;;1.91;79.81;98688.00;5039925;28;20049;-59
2024/01/16 10:38:39;;;;;;;0.70;0.70;;;;;;;2.69;79.24;98695.41;5032198;28;20056;-60
2024/01/16 10:41:17;;;;;;;0.80;0.80;;;;;;;2.50;78.35;98693.59;5021236;28;20063;-60
2024/01/16 10:43:45;;;;;;;0.73;0.73;;;;;;;2.11;78.50;98684.59;5034304;28;20051;-59
2024/01/16 10:46:14;;;;;;;0.80;0.80;;;;;;;1.60;78.23;98674.47;5033328;28;20048;-59
2024/01/16 10:48:42;;;;;;;0.70;0.70;;;;;;;2.06;75.75;98676.44;5038870;28;20048;-60
2024/01/16 10:51:12;;;;;;;0.70;0.70;;;;;;;1.08;81.68;98669.59;5041212;28;20605;-59
2024/01/16 10:53:42;;;;;;;0.73;0.73;;;;;;;1.60;81.64;98664.75;5041447;28;20055;-59
2024/01/16 10:56:10;;;;;;;;;;;;;;;1.04;81.59;98668.34;5036346;28;20130;-59
2024/01/16 10:58:41;;;;;;;0.80;0.80;;;;;;;2.34;76.30;98671.78;5039357;28;19921;-60
2024/01/16 11:01:11;;;;;;;0.70;0.70;;;;;;;1.40;76.78;98672.59;5037141;28;20049;-59
2024/01/16 11:03:41;;;;;;;0.70;0.70;;;;;;;1.64;79.92;98665.97;5041795;28;20136;-59
2024/01/16 11:06:08;;;;;;;0.60;0.60;;;;;;;0.58;81.18;98655.69;5036164;28;20041;-59
2024/01/16 11:08:37;;;;;;;0.80;0.80;;;;;;;1.08;82.42;98653.75;5020992;28;20044;-59
2024/01/16 11:11:05;;;;;;;0.80;0.80;;;;;;;0.08;84.03;98652.22;5028015;28;20144;-60
2024/01/16 11:13:33;;;;;;;0.77;0.77;;;;;;;1.35;82.03;98642.50;5033713;28;20099;-59
2024/01/16 11:16:02;;;;;;;0.80;0.80;;;;;;;1.28;82.62;98643.28;5019184;28;20052;-61
2024/01/16 11:18:29;;;;;;;0.90;0.90;;;;;;;1.65;80.18;98649.13;5039552;28;20052;-59
2024/01/16 11:20:56;;;;;;;0.70;0.70;;;;;;;1.48;82.12;98653.94;5034380;28;20052;-59
2024/01/16 11:23:23;;;;;;;0.77;0.77;;;;;;;1.83;80.12;98648.53;5042334;28;20041;-59
2024/01/16 11:25:50;;;;;;;0.85;0.85;;;;;;;1.92;75.59;98644.72;5033911;28;20124;-60
2024/01/16 11:28:19;;;;;;;0.60;0.60;;;;;;;1.72;71.32;98639.38;5030610;28;20052;-60
2024/01/16 11:30:46;;;;;;;0.70;0.70;;;;;;;1.43;73.90;98637.88;5038510;28;20033;-59